Ana Sayfa
METAR-TAF:

METAR-TAF

Havaalanları :

Kuantan, Malezya

Enlem: 03-37N, Boylam: 103-13E, yükseklik: 18 m

Güncel hava durumu gözlemi

Rapor saat 16:00 UTC de 46 dakika önce yapıldı.
Sakin rüzgar
Sıcaklık 25°C
Nem 94%
Basınç 1011 hPa
Görüş mesafesi: 8000 m
2500 ft yükseklikte az bulutlu
28000 ft yükseklikte parçalı çok bulutlu

METAR: WMKD 211600Z 00000KT 8000 FEW025 BKN280 25/24 Q1011 NOSIG

Saat: 00:46 (16:46 UTC)


TAF: eksik

4.000'den fazla havaalanı için hava durumu gözlemleri ve tahminleri (METAR ve TAF raporları).

Kullanılabilir istasyonlar harita üzerinde sarı ve kırmızı noktalarla gösterilir.

İstasyonun adını görmek için fareyi noktanın üzerinde gezdirin.

Sonrasında hava gözlem ve tahminlerini görmek için tıklayın.

Haritayı değiştirmek için: yaklaştırmak için siyah artı işaretli yeşil düğmeye ve uzaklaştırmak için de eksi işaretli düğmeye hızla tıklayın; bitişik haritalar için yeşil okları kullanın.


METAR-TAF: